Time;durP1;ratioP1;P1;durP2;ratioP2;P2;SDS_P1;SDS_P2;PMS_P1;PMS_P2;Temp;Humidity;BMP_temperature;BMP_pressure;BME280_temperature;BME280_humidity;BME280_pressure;Samples;Min_cycle;Max_cycle;Signal;HPM_P1;HPM_P2
2022/06/14 00:01:12;;;;;;;65.75;47.22;;;26.50;99.90;;;;;;5051848;28;20384;-71
2022/06/14 00:03:42;;;;;;;58.20;44.13;;;26.50;99.90;;;;;;5044602;28;20078;-69
2022/06/14 00:06:20;;;;;;;82.68;62.47;;;26.60;99.90;;;;;;5038936;28;20021;-70
2022/06/14 00:08:46;;;;;;;93.75;65.47;;;26.70;99.90;;;;;;5048875;28;20502;-72
2022/06/14 00:11:18;;;;;;;72.07;45.55;;;26.70;99.90;;;;;;5037996;28;20060;-71
2022/06/14 00:13:45;;;;;;;62.60;44.90;;;26.70;99.90;;;;;;5037328;28;20033;-69
2022/06/14 00:16:13;;;;;;;62.33;42.88;;;26.80;99.90;;;;;;5039375;28;20446;-69
2022/06/14 00:18:40;;;;;;;59.92;43.63;;;26.80;99.90;;;;;;5056046;28;20481;-70
2022/06/14 00:21:07;;;;;;;57.30;43.65;;;26.70;99.90;;;;;;5056213;28;20032;-67
2022/06/14 00:23:34;;;;;;;59.90;43.00;;;26.80;99.90;;;;;;5056144;28;20024;-68
2022/06/14 00:26:02;;;;;;;70.30;45.20;;;26.80;99.90;;;;;;5056054;28;20033;-67
2022/06/14 00:28:30;;;;;;;63.95;45.60;;;26.80;99.90;;;;;;5054825;28;20025;-69
2022/06/14 00:31:01;;;;;;;58.15;44.05;;;26.80;99.90;;;;;;5056295;28;20523;-67
2022/06/14 00:33:28;;;;;;;58.85;46.05;;;26.70;99.90;;;;;;5054337;28;20025;-71
2022/06/14 00:36:02;;;;;;;59.90;44.42;;;26.70;99.90;;;;;;5055983;28;20032;-70
2022/06/14 00:38:29;;;;;;;61.05;44.88;;;26.60;99.90;;;;;;5054719;28;20024;-71
2022/06/14 00:40:58;;;;;;;58.60;42.33;;;26.60;99.90;;;;;;5055377;28;20013;-70
2022/06/14 00:43:27;;;;;;;66.00;45.47;;;26.70;99.90;;;;;;5052242;28;20029;-68
2022/06/14 00:46:14;;;;;;;63.95;45.28;;;26.70;99.90;;;;;;5054703;28;20020;-66
2022/06/14 00:48:43;;;;;;;59.80;44.67;;;26.70;99.90;;;;;;5091972;22;20418;-67
2022/06/14 00:51:23;;;;;;;68.50;47.55;;;26.70;99.90;;;;;;5069202;28;20434;-68
2022/06/14 00:54:01;;;;;;;64.55;44.72;;;26.80;99.90;;;;;;5070042;28;20478;-67
2022/06/14 00:56:38;;;;;;;71.60;51.08;;;26.80;99.90;;;;;;5060961;28;20483;-66
2022/06/14 00:59:14;;;;;;;64.38;48.80;;;26.80;99.90;;;;;;5048641;28;20112;-65
2022/06/14 01:01:43;;;;;;;59.83;44.55;;;26.90;99.90;;;;;;5037552;28;20021;-67
2022/06/14 01:04:15;;;;;;;67.65;44.28;;;27.00;99.90;;;;;;5036919;28;20025;-67
2022/06/14 01:06:58;;;;;;;65.03;45.53;;;27.00;99.90;;;;;;5034222;28;20035;-65
2022/06/14 01:09:44;;;;;;;66.07;50.78;;;27.00;99.90;;;;;;5035934;28;20036;-65
2022/06/14 01:12:16;;;;;;;63.30;46.25;;;27.00;99.90;;;;;;5033038;28;20022;-66
2022/06/14 01:15:02;;;;;;;61.35;44.03;;;27.00;99.90;;;;;;5033367;28;20048;-66
2022/06/14 01:17:31;;;;;;;65.55;51.78;;;27.00;99.90;;;;;;5030316;28;20317;-66
2022/06/14 01:19:59;;;;;;;77.00;59.67;;;26.90;99.90;;;;;;5033976;28;20029;-66
2022/06/14 01:22:27;;;;;;;70.28;52.78;;;26.90;99.90;;;;;;5033562;28;20052;-66
2022/06/14 01:24:54;;;;;;;60.58;49.17;;;26.90;99.90;;;;;;5031197;28;20032;-66
2022/06/14 01:27:24;;;;;;;69.90;52.20;;;27.00;99.90;;;;;;5031580;28;20025;-65
2022/06/14 01:30:01;;;;;;;67.85;53.42;;;27.00;99.90;;;;;;5031040;28;20021;-66
2022/06/14 01:32:31;;;;;;;69.78;49.05;;;27.10;99.90;;;;;;5032362;28;20037;-65
2022/06/14 01:35:01;;;;;;;55.95;43.83;;;27.10;99.90;;;;;;5030082;28;20037;-66
2022/06/14 01:37:29;;;;;;;62.78;49.13;;;27.20;99.90;;;;;;5026175;28;20116;-65
2022/06/14 01:39:57;;;;;;;57.97;42.20;;;27.30;99.90;;;;;;5030591;28;20024;-65
2022/06/14 01:42:28;;;;;;;48.83;38.97;;;27.40;99.90;;;;;;5028773;28;20038;-66
2022/06/14 01:45:23;;;;;;;54.30;41.08;;;27.40;99.90;;;;;;5029691;28;20028;-66
2022/06/14 01:47:58;;;;;;;53.65;40.47;;;27.40;99.90;;;;;;5030262;28;20416;-66
2022/06/14 01:53:51;;;;;;;46.00;38.10;;;27.40;99.90;;;;;;5030724;28;20083;-64
2022/06/14 01:56:19;;;;;;;45.40;33.90;;;27.50;99.90;;;;;;5024441;28;20033;-65
2022/06/14 01:58:55;;;;;;;47.28;35.65;;;27.60;99.90;;;;;;5027661;28;20071;-66
2022/06/14 02:01:40;;;;;;;48.60;34.33;;;27.70;99.90;;;;;;5030387;28;20506;-66
2022/06/14 02:04:42;;;;;;;45.35;34.30;;;27.70;99.90;;;;;;5029485;28;20017;-66
2022/06/14 02:07:14;;;;;;;47.63;31.87;;;27.80;99.90;;;;;;5030223;28;20128;-67
2022/06/14 02:10:02;;;;;;;43.92;30.70;;;27.90;99.90;;;;;;5031717;28;20029;-69
2022/06/14 02:13:02;;;;;;;35.97;27.83;;;28.00;99.90;;;;;;5030514;28;20171;-67
2022/06/14 02:15:45;;;;;;;41.35;25.73;;;28.10;99.90;;;;;;5033222;28;20152;-69
2022/06/14 02:18:31;;;;;;;35.38;25.33;;;28.20;99.90;;;;;;5030672;28;20025;-67
2022/06/14 02:21:20;;;;;;;34.10;26.10;;;28.30;99.90;;;;;;5031427;28;20033;-65
2022/06/14 02:23:55;;;;;;;33.35;26.88;;;28.40;99.90;;;;;;5026912;28;20483;-66
2022/06/14 02:26:58;;;;;;;36.13;28.08;;;28.40;99.90;;;;;;5031821;28;20033;-67
2022/06/14 02:29:49;;;;;;;31.65;21.35;;;28.50;99.90;;;;;;5032519;28;20021;-66
2022/06/14 02:32:23;;;;;;;28.52;20.63;;;28.40;99.90;;;;;;5030236;28;20017;-68
2022/06/14 02:35:07;;;;;;;30.95;22.13;;;28.40;99.90;;;;;;5028040;28;20107;-66
2022/06/14 02:37:58;;;;;;;26.60;20.23;;;28.60;99.90;;;;;;5029392;28;20047;-65
2022/06/14 02:40:34;;;;;;;29.23;22.77;;;28.60;99.90;;;;;;5029403;28;20070;-65
2022/06/14 02:43:12;;;;;;;26.23;20.30;;;28.80;99.90;;;;;;5026996;28;20127;-66
2022/06/14 02:45:49;;;;;;;27.05;19.27;;;28.80;99.90;;;;;;5029756;28;20087;-66
2022/06/14 02:48:21;;;;;;;28.95;19.23;;;28.90;99.90;;;;;;5029639;28;20087;-67
2022/06/14 02:50:53;;;;;;;28.65;20.77;;;29.00;99.90;;;;;;5031961;28;20029;-67
2022/06/14 02:53:35;;;;;;;36.38;23.42;;;28.90;99.90;;;;;;5030649;28;20076;-67
2022/06/14 02:56:16;;;;;;;31.52;22.13;;;28.90;99.90;;;;;;5030243;28;20027;-67
2022/06/14 02:58:54;;;;;;;34.90;24.15;;;29.00;99.90;;;;;;5030187;28;20108;-68
2022/06/14 03:01:29;;;;;;;30.75;21.27;;;29.10;99.90;;;;;;5029377;28;20548;-67
2022/06/14 03:04:06;;;;;;;28.27;21.77;;;29.10;99.90;;;;;;5029263;28;20029;-67
2022/06/14 03:06:52;;;;;;;37.08;21.92;;;29.30;99.90;;;;;;5030477;28;20037;-68
2022/06/14 03:09:23;;;;;;;31.00;22.73;;;29.40;99.90;;;;;;5030046;28;20048;-67
2022/06/14 03:12:10;;;;;;;39.22;24.73;;;29.30;99.90;;;;;;5029970;28;20387;-67
2022/06/14 03:14:45;;;;;;;36.95;25.30;;;29.40;99.90;;;;;;5031861;28;20084;-67
2022/06/14 03:17:23;;;;;;;29.10;23.90;;;29.40;99.90;;;;;;5032272;28;20017;-67
2022/06/14 03:20:29;;;;;;;30.80;21.08;;;29.40;99.90;;;;;;5031183;28;20041;-68
2022/06/14 03:23:05;;;;;;;34.13;24.65;;;29.50;99.90;;;;;;5030521;28;20038;-67
2022/06/14 03:25:40;;;;;;;33.67;23.48;;;29.70;99.90;;;;;;5031395;28;20143;-67
2022/06/14 03:28:21;;;;;;;41.55;27.10;;;29.60;99.90;;;;;;5029650;28;20121;-65
2022/06/14 03:31:03;;;;;;;40.42;24.77;;;29.60;99.90;;;;;;5033840;28;20301;-67
2022/06/14 03:33:49;;;;;;;;;;;29.60;99.90;;;;;;5034742;28;20407;-68
2022/06/14 03:36:17;;;;;;;43.05;25.88;;;29.60;99.90;;;;;;5033513;28;19956;-67
2022/06/14 03:38:52;;;;;;;51.88;26.80;;;29.70;99.90;;;;;;5036125;28;20017;-66
2022/06/14 03:41:22;;;;;;;42.45;25.45;;;29.90;99.90;;;;;;5033686;28;20030;-66
2022/06/14 03:43:51;;;;;;;46.72;23.88;;;29.90;99.90;;;;;;5033129;28;20814;-67
2022/06/14 03:46:30;;;;;;;36.72;24.02;;;29.90;99.90;;;;;;5032053;28;20155;-68
2022/06/14 03:49:02;;;;;;;40.97;27.27;;;29.90;99.90;;;;;;5031142;28;20052;-68
2022/06/14 03:51:48;;;;;;;46.88;33.05;;;29.80;99.90;;;;;;5033116;28;20033;-68
2022/06/14 03:54:16;;;;;;;46.38;32.50;;;29.80;99.90;;;;;;5028494;28;20042;-67
2022/06/14 03:57:24;;;;;;;37.28;25.58;;;29.90;99.90;;;;;;5034737;28;20065;-66
2022/06/14 04:00:00;;;;;;;30.83;21.58;;;30.00;99.90;;;;;;5036020;28;20044;-65
2022/06/14 04:02:56;;;;;;;34.92;22.08;;;30.20;99.90;;;;;;5032029;28;20140;-68
2022/06/14 04:05:23;;;;;;;39.03;25.00;;;30.20;99.90;;;;;;5035374;28;20018;-68
2022/06/14 04:08:11;;;;;;;38.42;25.92;;;30.20;99.90;;;;;;5034196;28;20097;-70
2022/06/14 04:10:38;;;;;;;61.28;44.15;;;30.10;99.90;;;;;;5035293;28;20050;-70
2022/06/14 04:13:09;;;;;;;34.30;25.45;;;30.30;99.90;;;;;;5035466;28;20082;-71
2022/06/14 04:15:55;;;;;;;34.20;24.50;;;30.30;99.90;;;;;;5036132;28;20026;-73
2022/06/14 04:18:40;;;;;;;39.70;30.17;;;30.30;99.90;;;;;;5024238;28;20025;-68
2022/06/14 04:21:23;;;;;;;52.33;36.90;;;30.40;99.90;;;;;;5031874;28;20049;-68
2022/06/14 04:24:17;;;;;;;44.78;29.67;;;30.50;99.90;;;;;;5033197;28;20013;-69
2022/06/14 04:26:57;;;;;;;31.85;23.40;;;30.50;99.90;;;;;;5034268;28;20091;-67
2022/06/14 04:29:46;;;;;;;31.23;22.15;;;30.70;99.90;;;;;;5034260;28;20484;-67
2022/06/14 04:32:33;;;;;;;30.00;22.52;;;30.80;99.90;;;;;;5033789;28;20079;-68
2022/06/14 04:35:19;;;;;;;23.38;19.50;;;30.90;99.90;;;;;;5031717;28;20351;-66
2022/06/14 04:37:55;;;;;;;25.77;18.48;;;30.90;99.90;;;;;;5032661;28;20033;-69
2022/06/14 04:40:29;;;;;;;22.08;18.02;;;31.00;99.90;;;;;;5032439;28;20171;-65
2022/06/14 04:42:56;;;;;;;26.02;17.95;;;31.10;99.90;;;;;;5033018;28;20103;-68
2022/06/14 04:45:26;;;;;;;35.00;18.95;;;31.10;99.90;;;;;;5034088;28;20022;-66
2022/06/14 04:48:02;;;;;;;37.55;21.25;;;31.10;99.90;;;;;;5033432;28;20052;-68
2022/06/14 04:50:37;;;;;;;31.35;19.85;;;31.00;99.90;;;;;;5033006;28;20033;-67
2022/06/14 04:53:12;;;;;;;22.42;15.68;;;31.10;99.90;;;;;;5033122;28;20032;-67
2022/06/14 04:56:05;;;;;;;23.20;16.23;;;31.20;99.90;;;;;;5033630;28;20026;-67
2022/06/14 04:58:43;;;;;;;32.45;21.70;;;31.20;99.90;;;;;;5034553;28;20034;-66
2022/06/14 05:01:17;;;;;;;25.27;17.63;;;31.20;99.90;;;;;;5032233;28;20017;-68
2022/06/14 05:03:55;;;;;;;23.85;17.90;;;31.10;99.90;;;;;;5035637;28;20022;-68
2022/06/14 05:06:48;;;;;;;18.40;15.70;;;31.10;99.90;;;;;;5034281;28;20022;-67
2022/06/14 05:09:21;;;;;;;23.33;16.75;;;31.20;99.90;;;;;;5011911;28;20065;-66
2022/06/14 05:11:56;;;;;;;23.48;16.80;;;31.30;99.90;;;;;;5018723;28;20052;-66
2022/06/14 05:14:48;;;;;;;21.98;15.80;;;31.30;99.90;;;;;;5033377;28;20025;-67
2022/06/14 05:17:26;;;;;;;18.48;15.07;;;31.40;99.90;;;;;;5032799;28;20476;-65
2022/06/14 05:20:23;;;;;;;21.23;16.35;;;31.40;99.90;;;;;;5040954;28;20456;-65
2022/06/14 05:22:55;;;;;;;25.33;16.90;;;31.60;99.90;;;;;;5042609;28;20018;-65
2022/06/14 05:25:23;;;;;;;25.85;16.23;;;31.50;99.90;;;;;;5040257;28;20021;-64
2022/06/14 05:28:03;;;;;;;21.55;15.02;;;31.40;99.90;;;;;;5042678;28;20211;-66
2022/06/14 05:30:38;;;;;;;25.00;14.30;;;31.60;99.90;;;;;;5040015;28;20163;-65
2022/06/14 05:33:24;;;;;;;19.17;14.75;;;31.70;99.90;;;;;;5034280;28;20022;-66
2022/06/14 05:36:08;;;;;;;22.90;16.02;;;31.60;99.90;;;;;;5043245;28;20025;-65
2022/06/14 05:38:37;;;;;;;22.60;15.55;;;31.60;99.90;;;;;;5041869;28;20072;-65
2022/06/14 05:41:11;;;;;;;19.67;14.85;;;31.70;99.90;;;;;;5046165;28;20078;-65
2022/06/14 05:43:57;;;;;;;25.45;15.85;;;31.80;99.90;;;;;;5030344;28;20033;-66
2022/06/14 05:46:33;;;;;;;21.13;15.32;;;31.80;99.90;;;;;;5033228;28;20034;-66
2022/06/14 05:49:25;;;;;;;23.02;15.57;;;31.90;99.90;;;;;;5033371;28;20061;-66
2022/06/14 05:52:15;;;;;;;21.67;16.00;;;31.90;99.90;;;;;;5033332;28;20026;-65
2022/06/14 05:54:46;;;;;;;22.27;14.68;;;32.00;99.90;;;;;;5031575;28;20029;-67
2022/06/14 05:57:21;;;;;;;19.53;13.10;;;32.00;99.90;;;;;;5034409;28;20030;-67
2022/06/14 05:59:54;;;;;;;26.83;17.45;;;32.00;99.90;;;;;;5033552;28;20547;-68
2022/06/14 06:02:44;;;;;;;19.65;13.93;;;31.90;99.90;;;;;;5034239;28;20064;-65
2022/06/14 06:05:23;;;;;;;17.73;13.80;;;32.00;98.00;;;;;;5022875;28;20029;-64
2022/06/14 06:07:55;;;;;;;17.55;13.60;;;32.20;98.80;;;;;;5033264;28;20025;-65
2022/06/14 06:10:31;;;;;;;92.10;66.82;;;32.20;98.10;;;;;;5033904;28;20067;-65
2022/06/14 06:13:13;;;;;;;20.30;12.98;;;32.30;97.10;;;;;;5032362;28;20431;-65
2022/06/14 06:15:44;;;;;;;38.70;22.35;;;32.30;95.60;;;;;;5034044;28;20104;-65
2022/06/14 06:18:19;;;;;;;20.63;13.48;;;32.40;96.20;;;;;;5034067;28;20479;-66
2022/06/14 06:20:53;;;;;;;16.42;12.38;;;32.50;96.00;;;;;;5031661;28;20431;-65
2022/06/14 06:23:43;;;;;;;16.55;12.32;;;32.50;95.80;;;;;;5032187;28;20130;-65
2022/06/14 06:26:13;;;;;;;12.73;11.25;;;32.60;94.90;;;;;;5029279;28;20024;-65
2022/06/14 06:28:48;;;;;;;15.88;13.07;;;32.60;93.70;;;;;;5030307;28;20049;-65
2022/06/14 06:31:20;;;;;;;16.38;12.02;;;32.60;95.10;;;;;;5031985;28;20032;-65
2022/06/14 06:33:49;;;;;;;;;;;32.60;94.20;;;;;;5029176;28;20033;-66
2022/06/14 06:36:20;;;;;;;128.35;95.85;;;32.60;95.50;;;;;;5026562;28;20017;-66
2022/06/14 06:39:00;;;;;;;25.20;17.60;;;32.70;94.10;;;;;;5027517;28;20022;-65
2022/06/14 06:44:28;;;;;;;68.32;41.20;;;32.70;94.00;;;;;;5032583;28;20021;-65
2022/06/14 06:47:15;;;;;;;50.83;38.33;;;32.80;93.30;;;;;;5028960;28;20070;-65
2022/06/14 06:50:03;;;;;;;15.05;12.48;;;32.90;91.80;;;;;;5019579;28;20053;-67
2022/06/14 06:52:58;;;;;;;29.17;21.80;;;32.90;92.80;;;;;;5028257;28;20035;-66
2022/06/14 06:55:33;;;;;;;12.38;10.90;;;32.90;92.30;;;;;;5033492;28;20026;-66
2022/06/14 06:58:05;;;;;;;73.88;56.08;;;32.90;91.20;;;;;;5032487;28;20047;-66
2022/06/14 07:00:35;;;;;;;33.20;24.02;;;33.00;91.70;;;;;;5030852;28;20952;-65
2022/06/14 07:03:13;;;;;;;24.50;18.52;;;33.10;90.30;;;;;;5031315;28;20040;-66
2022/06/14 07:05:40;;;;;;;27.52;20.70;;;33.20;90.30;;;;;;5031190;28;20022;-65
2022/06/14 07:08:17;;;;;;;17.40;13.02;;;33.20;90.40;;;;;;5026678;28;20132;-64
2022/06/14 07:10:52;;;;;;;19.10;15.50;;;33.20;90.90;;;;;;5021557;28;20037;-64
2022/06/14 07:13:27;;;;;;;19.17;16.98;;;33.30;90.90;;;;;;5027159;28;20029;-64
2022/06/14 07:16:05;;;;;;;18.90;14.60;;;33.30;91.20;;;;;;5036566;28;20483;-64
2022/06/14 07:18:43;;;;;;;21.30;16.25;;;33.40;91.90;;;;;;5038236;28;20075;-65
2022/06/14 07:21:14;;;;;;;15.77;13.30;;;33.40;90.60;;;;;;5036772;28;20033;-64
2022/06/14 07:23:57;;;;;;;18.15;14.23;;;33.40;89.10;;;;;;5037191;28;20076;-64
2022/06/14 07:26:33;;;;;;;21.65;14.63;;;33.40;89.70;;;;;;5030005;28;20038;-64
2022/06/14 07:29:04;;;;;;;18.17;14.10;;;33.40;89.90;;;;;;5031252;28;20021;-66
2022/06/14 07:31:37;;;;;;;14.63;13.10;;;33.30;85.70;;;;;;5035776;28;20104;-65
2022/06/14 07:34:06;;;;;;;22.95;16.42;;;33.30;85.70;;;;;;5036128;28;20483;-65
2022/06/14 07:36:46;;;;;;;66.30;51.10;;;33.30;88.30;;;;;;5041002;28;20542;-66
2022/06/14 07:39:13;;;;;;;17.15;15.32;;;33.20;86.60;;;;;;5035271;28;20021;-66
2022/06/14 07:41:49;;;;;;;17.83;15.07;;;33.20;87.70;;;;;;5038826;28;20422;-64
2022/06/14 07:44:56;;;;;;;13.68;12.27;;;33.10;89.20;;;;;;5027028;28;20414;-64
2022/06/14 07:47:41;;;;;;;15.43;12.43;;;33.20;87.70;;;;;;5027843;28;20029;-64
2022/06/14 07:50:36;;;;;;;22.17;14.57;;;33.20;86.10;;;;;;5036217;28;20483;-64
2022/06/14 07:53:08;;;;;;;92.20;19.38;;;33.30;87.60;;;;;;5031313;28;20506;-64
2022/06/14 07:55:40;;;;;;;;;;;33.30;86.80;;;;;;5024525;28;20041;-64
2022/06/14 07:58:14;;;;;;;36.20;25.15;;;33.30;87.00;;;;;;5033311;28;19936;-65
2022/06/14 08:03:41;;;;;;;30.10;22.93;;;33.30;84.00;;;;;;5031316;28;20408;-64
2022/06/14 08:06:30;;;;;;;39.38;16.25;;;33.30;86.40;;;;;;5028957;28;20338;-65
2022/06/14 08:09:10;;;;;;;15.38;13.77;;;33.30;85.40;;;;;;5022969;28;21299;-65
2022/06/14 08:11:49;;;;;;;18.13;13.85;;;33.30;84.20;;;;;;5028158;28;20026;-65
2022/06/14 08:14:39;;;;;;;17.58;14.60;;;33.40;86.20;;;;;;5031799;28;20076;-65
2022/06/14 08:17:09;;;;;;;16.73;14.40;;;33.40;84.90;;;;;;5030783;28;20033;-65
2022/06/14 08:19:42;;;;;;;17.48;14.18;;;33.50;84.10;;;;;;5046930;28;20103;-65
2022/06/14 08:22:18;;;;;;;16.10;13.43;;;33.50;85.70;;;;;;5035103;28;20033;-65
2022/06/14 08:24:55;;;;;;;16.67;14.75;;;33.60;83.60;;;;;;5035644;28;20045;-65
2022/06/14 08:27:29;;;;;;;18.05;16.17;;;33.60;86.00;;;;;;5034147;28;20036;-64
2022/06/14 08:30:05;;;;;;;21.13;15.98;;;33.60;86.40;;;;;;5032501;28;20036;-65
2022/06/14 08:32:40;;;;;;;17.13;13.40;;;33.60;85.60;;;;;;5036128;28;20045;-65
2022/06/14 08:35:24;;;;;;;17.98;15.68;;;33.50;83.80;;;;;;5032834;28;20037;-65
2022/06/14 08:37:56;;;;;;;26.15;14.70;;;33.50;84.00;;;;;;5027071;28;20104;-64
2022/06/14 08:40:23;;;;;;;23.38;16.65;;;33.50;85.40;;;;;;5037402;28;20091;-64
2022/06/14 08:42:58;;;;;;;20.73;17.70;;;33.60;85.50;;;;;;5047549;28;20052;-65
2022/06/14 08:45:57;;;;;;;18.50;16.13;;;33.50;86.80;;;;;;5046664;28;20048;-64
2022/06/14 08:49:03;;;;;;;17.25;15.43;;;33.50;86.00;;;;;;5043231;28;20403;-64
2022/06/14 08:51:33;;;;;;;51.17;45.38;;;33.50;85.60;;;;;;5034554;28;20022;-65
2022/06/14 08:54:22;;;;;;;24.23;19.67;;;33.50;86.80;;;;;;5034881;28;20376;-64
2022/06/14 08:57:08;;;;;;;19.52;17.35;;;33.50;86.10;;;;;;5035607;28;20056;-65
2022/06/14 09:00:04;;;;;;;21.98;18.38;;;33.50;86.80;;;;;;5034538;28;20021;-64
2022/06/14 09:03:02;;;;;;;24.95;18.55;;;33.40;86.80;;;;;;5035067;28;20025;-64
2022/06/14 09:05:38;;;;;;;25.40;20.45;;;33.40;87.10;;;;;;5035150;28;20496;-64
2022/06/14 09:08:25;;;;;;;24.55;19.92;;;33.40;87.30;;;;;;5035235;28;20037;-64
2022/06/14 09:10:56;;;;;;;23.45;20.05;;;33.30;87.90;;;;;;5034635;28;20039;-64
2022/06/14 09:13:38;;;;;;;24.67;21.25;;;33.30;88.70;;;;;;5033728;28;20025;-64
2022/06/14 09:16:05;;;;;;;26.67;22.67;;;33.20;88.50;;;;;;5033840;28;20082;-64
2022/06/14 09:19:00;;;;;;;29.90;23.80;;;33.20;89.40;;;;;;5034136;28;20254;-65
2022/06/14 09:21:49;;;;;;;21.67;19.42;;;33.20;89.00;;;;;;5034660;28;20048;-64
2022/06/14 09:24:19;;;;;;;24.35;20.30;;;33.10;89.10;;;;;;5034919;28;20026;-65
2022/06/14 09:27:06;;;;;;;23.20;20.27;;;33.10;88.80;;;;;;5034283;28;20029;-64
2022/06/14 09:29:40;;;;;;;21.67;17.17;;;33.10;89.20;;;;;;5035111;28;20072;-65
2022/06/14 09:32:29;;;;;;;21.20;18.27;;;33.00;88.50;;;;;;5034969;28;20021;-64
2022/06/14 09:35:16;;;;;;;22.30;19.05;;;33.00;87.90;;;;;;5034653;28;20044;-64
2022/06/14 09:37:46;;;;;;;32.75;23.73;;;33.10;88.80;;;;;;5034751;28;20052;-64
2022/06/14 09:40:31;;;;;;;25.70;21.48;;;33.10;89.20;;;;;;5029232;28;20030;-64
2022/06/14 09:43:38;;;;;;;32.35;18.88;;;33.10;90.00;;;;;;5025285;28;20044;-64
2022/06/14 09:46:36;;;;;;;25.50;20.08;;;33.00;90.10;;;;;;5018344;28;20026;-64
2022/06/14 09:49:17;;;;;;;25.42;21.35;;;33.10;89.60;;;;;;5021023;28;20041;-64
2022/06/14 09:52:04;;;;;;;25.65;21.05;;;33.00;89.70;;;;;;5029729;28;20021;-69
2022/06/14 09:54:33;;;;;;;36.75;25.50;;;33.00;90.10;;;;;;5031887;28;20144;-68
2022/06/14 09:57:11;;;;;;;24.95;20.20;;;33.00;90.50;;;;;;5036198;28;20436;-70
2022/06/14 10:00:14;;;;;;;27.77;23.13;;;33.00;90.70;;;;;;5042826;28;20091;-69
2022/06/14 10:03:01;;;;;;;27.98;19.38;;;32.90;90.50;;;;;;5037983;28;20032;-70
2022/06/14 10:05:49;;;;;;;23.98;19.27;;;33.00;89.20;;;;;;5045603;28;20173;-70
2022/06/14 10:08:39;;;;;;;24.50;18.80;;;32.90;89.00;;;;;;5041401;28;20440;-67
2022/06/14 10:11:08;;;;;;;24.75;19.90;;;32.90;88.30;;;;;;5032772;28;20468;-66
2022/06/14 10:13:45;;;;;;;29.13;21.98;;;32.90;88.40;;;;;;5031537;28;20029;-67
2022/06/14 10:16:25;;;;;;;36.97;27.27;;;32.90;89.90;;;;;;5030602;28;20045;-69
2022/06/14 10:19:06;;;;;;;28.63;24.15;;;32.90;90.30;;;;;;5028736;28;20098;-69
2022/06/14 10:21:40;;;;;;;34.78;24.88;;;32.80;90.00;;;;;;5032299;28;20392;-68
2022/06/14 10:24:17;;;;;;;37.55;28.52;;;32.60;91.70;;;;;;5030393;28;20403;-71
2022/06/14 10:29:45;;;;;;;31.60;24.60;;;32.00;93.90;;;;;;5025646;28;20033;-70
2022/06/14 10:32:24;;;;;;;39.78;29.55;;;31.70;95.70;;;;;;5033463;28;20017;-70
2022/06/14 10:34:51;;;;;;;38.55;28.13;;;31.50;96.80;;;;;;5026535;28;20035;-72
2022/06/14 10:37:26;;;;;;;40.03;34.17;;;31.40;98.10;;;;;;5030704;28;20424;-69
2022/06/14 10:40:09;;;;;;;67.28;57.17;;;31.30;98.00;;;;;;5032873;28;20067;-70
2022/06/14 10:42:56;;;;;;;52.10;40.72;;;31.20;98.00;;;;;;5032903;28;20037;-70
2022/06/14 10:45:39;;;;;;;40.30;31.63;;;31.20;98.10;;;;;;5028249;28;20044;-69
2022/06/14 10:48:12;;;;;;;45.65;34.15;;;31.00;98.30;;;;;;5026568;28;20029;-69
2022/06/14 10:50:48;;;;;;;54.63;44.80;;;31.00;98.80;;;;;;5030447;28;20107;-70
2022/06/14 10:53:20;;;;;;;44.58;34.92;;;30.90;99.00;;;;;;5029009;28;20041;-67
2022/06/14 10:55:58;;;;;;;34.85;27.38;;;30.90;98.80;;;;;;5029890;28;20060;-68
2022/06/14 10:58:46;;;;;;;31.83;24.48;;;30.80;97.50;;;;;;5027531;28;20373;-67
2022/06/14 11:01:17;;;;;;;31.05;24.27;;;30.70;97.50;;;;;;5023739;28;20021;-65
2022/06/14 11:04:14;;;;;;;30.65;24.92;;;30.70;97.60;;;;;;5029466;28;20079;-67
2022/06/14 11:07:02;;;;;;;208.43;185.73;;;30.60;97.80;;;;;;5010253;28;20041;-66
2022/06/14 11:09:37;;;;;;;47.63;36.40;;;30.60;97.80;;;;;;5028510;28;20402;-66
2022/06/14 11:12:22;;;;;;;167.90;111.70;;;30.50;97.30;;;;;;5025695;28;20433;-66
2022/06/14 11:14:53;;;;;;;28.42;22.20;;;30.50;97.70;;;;;;5029737;28;20532;-65
2022/06/14 11:17:40;;;;;;;30.63;24.25;;;30.40;97.20;;;;;;5027445;28;20044;-65
2022/06/14 11:20:23;;;;;;;25.77;21.30;;;30.30;97.40;;;;;;5029302;28;20080;-64
2022/06/14 11:22:56;;;;;;;24.17;20.85;;;30.10;98.20;;;;;;5031274;28;20025;-69
2022/06/14 11:25:44;;;;;;;26.25;20.70;;;30.10;98.40;;;;;;5028033;28;20021;-65
2022/06/14 11:28:26;;;;;;;28.85;21.05;;;30.00;98.20;;;;;;5027195;28;20033;-65
2022/06/14 11:31:20;;;;;;;25.45;21.95;;;30.00;98.50;;;;;;5022292;28;20033;-66
2022/06/14 11:34:17;;;;;;;27.48;21.95;;;30.00;98.70;;;;;;5028239;28;20034;-66
2022/06/14 11:37:14;;;;;;;27.00;21.65;;;29.90;99.20;;;;;;5030702;28;20057;-64
2022/06/14 11:39:49;;;;;;;152.98;123.60;;;29.90;99.90;;;;;;5027695;28;20091;-65
2022/06/14 11:42:31;;;;;;;41.85;27.98;;;30.00;99.90;;;;;;5031074;28;20100;-65
2022/06/14 11:45:05;;;;;;;34.65;24.73;;;30.00;99.90;;;;;;5028115;28;20065;-67
2022/06/14 11:47:46;;;;;;;35.55;27.90;;;29.90;99.90;;;;;;5031172;28;20041;-67
2022/06/14 11:50:36;;;;;;;35.30;29.80;;;29.90;99.90;;;;;;5028718;28;20106;-66
2022/06/14 11:53:22;;;;;;;28.25;21.83;;;29.80;99.90;;;;;;5032491;28;20120;-65
2022/06/14 11:55:56;;;;;;;29.67;22.48;;;29.70;99.90;;;;;;5029090;28;20057;-65
2022/06/14 11:58:25;;;;;;;28.52;23.27;;;29.80;99.90;;;;;;5032775;28;20033;-64
2022/06/14 12:01:14;;;;;;;40.25;32.22;;;29.70;99.90;;;;;;5028972;28;20582;-65
2022/06/14 12:03:59;;;;;;;41.08;32.03;;;29.70;99.90;;;;;;5030050;28;20042;-64
2022/06/14 12:06:43;;;;;;;52.10;36.33;;;29.70;99.90;;;;;;5032385;28;20121;-63
2022/06/14 12:09:49;;;;;;;34.45;24.13;;;29.70;99.90;;;;;;5033443;28;20021;-65
2022/06/14 12:12:45;;;;;;;56.15;39.92;;;29.70;99.90;;;;;;5033285;28;20021;-66
2022/06/14 12:15:25;;;;;;;28.63;23.50;;;29.60;99.90;;;;;;5031927;28;20032;-65
2022/06/14 12:17:59;;;;;;;24.48;19.95;;;29.60;99.90;;;;;;5033535;28;20022;-64
2022/06/14 12:20:27;;;;;;;29.83;21.48;;;29.60;99.90;;;;;;5033817;28;20737;-64
2022/06/14 12:23:20;;;;;;;25.50;22.55;;;29.60;99.90;;;;;;5034722;28;20460;-65
2022/06/14 12:28:55;;;;;;;21.70;19.35;;;29.50;99.90;;;;;;5032483;28;20380;-67
2022/06/14 12:31:48;;;;;;;28.92;20.10;;;29.40;99.90;;;;;;5032477;28;20026;-65
2022/06/14 12:34:27;;;;;;;30.13;21.42;;;29.40;99.90;;;;;;5028140;28;20076;-65
2022/06/14 12:37:09;;;;;;;26.13;22.35;;;29.30;99.90;;;;;;5032985;28;20038;-65
2022/06/14 12:39:39;;;;;;;;;;;29.30;99.90;;;;;;5032915;28;20107;-65
2022/06/14 12:42:13;;;;;;;25.52;20.63;;;29.20;99.90;;;;;;5032417;28;20323;-64
2022/06/14 12:45:02;;;;;;;48.35;39.08;;;29.10;99.90;;;;;;5033813;28;20049;-64
2022/06/14 12:47:35;;;;;;;31.52;24.17;;;29.20;99.90;;;;;;5031871;28;20480;-64
2022/06/14 12:50:36;;;;;;;29.73;23.67;;;29.20;99.90;;;;;;5031031;28;20484;-65
2022/06/14 12:53:20;;;;;;;26.63;23.38;;;29.20;99.90;;;;;;5034532;28;20498;-65
2022/06/14 12:55:50;;;;;;;29.30;24.83;;;29.10;99.90;;;;;;5030595;28;20052;-65
2022/06/14 12:58:20;;;;;;;37.65;30.33;;;29.10;99.90;;;;;;5034600;28;20026;-67
2022/06/14 13:00:51;;;;;;;30.75;26.35;;;29.10;99.90;;;;;;5034443;28;20026;-67
2022/06/14 13:03:26;;;;;;;30.48;24.02;;;29.10;99.90;;;;;;5048070;28;20025;-65
2022/06/14 13:06:01;;;;;;;32.78;24.00;;;29.10;99.90;;;;;;5033083;28;20045;-66
2022/06/14 13:08:50;;;;;;;30.88;24.45;;;29.10;99.90;;;;;;5066151;22;20056;-66
2022/06/14 13:11:27;;;;;;;33.20;25.85;;;29.00;99.90;;;;;;5052825;28;20024;-66
2022/06/14 13:14:05;;;;;;;33.53;24.55;;;29.00;99.90;;;;;;5053836;28;20021;-66
2022/06/14 13:16:37;;;;;;;31.70;22.30;;;29.10;99.90;;;;;;5049584;28;20029;-66
2022/06/14 13:19:05;;;;;;;36.47;25.75;;;29.00;99.90;;;;;;5050397;28;20095;-66
2022/06/14 13:21:39;;;;;;;38.25;27.52;;;29.00;99.90;;;;;;5052169;28;20410;-66
2022/06/14 13:24:09;;;;;;;37.42;27.95;;;29.00;99.90;;;;;;5052470;28;20025;-66
2022/06/14 13:27:04;;;;;;;38.72;30.10;;;29.00;99.90;;;;;;5053355;28;20036;-66
2022/06/14 13:29:47;;;;;;;33.67;26.35;;;29.00;99.90;;;;;;5051301;28;20611;-66
2022/06/14 13:32:42;;;;;;;31.73;25.35;;;28.90;99.90;;;;;;5049746;28;20056;-66
2022/06/14 13:35:28;;;;;;;35.97;28.75;;;28.90;99.90;;;;;;5047976;28;20036;-65
2022/06/14 13:38:00;;;;;;;39.25;30.38;;;28.90;99.90;;;;;;5053491;28;20414;-65
2022/06/14 13:40:47;;;;;;;45.88;33.20;;;28.90;99.90;;;;;;5045306;28;20108;-65
2022/06/14 13:43:38;;;;;;;42.92;32.70;;;28.90;99.90;;;;;;5047304;28;20072;-65